sensor_id;sensor_type;location;lat;lon;timestamp;P1;durP1;ratioP1;P2;durP2;ratioP2
81036;SDS011;70521;47.468;19.306;2023-08-06T00:00:29;19.33;;;13.68;;
81036;SDS011;70521;47.468;19.306;2023-08-06T00:03:30;20.40;;;13.98;;
81036;SDS011;70521;47.468;19.306;2023-08-06T00:06:31;18.98;;;13.52;;
81036;SDS011;70521;47.468;19.306;2023-08-06T00:09:32;20.20;;;14.13;;
81036;SDS011;70521;47.468;19.306;2023-08-06T00:12:33;20.00;;;13.20;;
81036;SDS011;70521;47.468;19.306;2023-08-06T00:15:34;18.60;;;13.65;;
81036;SDS011;70521;47.468;19.306;2023-08-06T00:18:35;20.10;;;13.10;;
81036;SDS011;70521;47.468;19.306;2023-08-06T00:21:36;15.38;;;11.73;;
81036;SDS011;70521;47.468;19.306;2023-08-06T00:24:37;16.48;;;11.38;;
81036;SDS011;70521;47.468;19.306;2023-08-06T00:27:38;12.30;;;10.40;;
81036;SDS011;70521;47.468;19.306;2023-08-06T00:30:39;13.13;;;10.95;;
81036;SDS011;70521;47.468;19.306;2023-08-06T00:33:40;13.15;;;9.80;;
81036;SDS011;70521;47.468;19.306;2023-08-06T00:36:42;11.00;;;9.05;;
81036;SDS011;70521;47.468;19.306;2023-08-06T00:39:43;10.32;;;8.43;;
81036;SDS011;70521;47.468;19.306;2023-08-06T00:42:44;12.98;;;9.00;;
81036;SDS011;70521;47.468;19.306;2023-08-06T00:45:46;9.82;;;8.23;;
81036;SDS011;70521;47.468;19.306;2023-08-06T00:48:47;9.35;;;8.43;;
81036;SDS011;70521;47.468;19.306;2023-08-06T00:51:48;11.65;;;8.40;;
81036;SDS011;70521;47.468;19.306;2023-08-06T00:54:49;10.20;;;8.00;;
81036;SDS011;70521;47.468;19.306;2023-08-06T00:57:51;10.57;;;8.70;;
81036;SDS011;70521;47.468;19.306;2023-08-06T01:00:53;12.25;;;8.93;;
81036;SDS011;70521;47.468;19.306;2023-08-06T01:03:54;11.60;;;9.27;;
81036;SDS011;70521;47.468;19.306;2023-08-06T01:07:04;13.07;;;9.80;;
81036;SDS011;70521;47.468;19.306;2023-08-06T01:13:31;10.85;;;8.73;;
81036;SDS011;70521;47.468;19.306;2023-08-06T01:16:34;9.95;;;8.35;;
81036;SDS011;70521;47.468;19.306;2023-08-06T01:19:36;10.55;;;8.60;;
81036;SDS011;70521;47.468;19.306;2023-08-06T01:22:37;9.95;;;8.75;;
81036;SDS011;70521;47.468;19.306;2023-08-06T01:32:17;11.35;;;8.00;;
81036;SDS011;70521;47.468;19.306;2023-08-06T01:35:19;11.82;;;8.25;;
81036;SDS011;70521;47.468;19.306;2023-08-06T01:38:20;9.23;;;7.03;;
81036;SDS011;70521;47.468;19.306;2023-08-06T01:41:21;9.68;;;8.10;;
81036;SDS011;70521;47.468;19.306;2023-08-06T01:44:22;11.60;;;8.18;;
81036;SDS011;70521;47.468;19.306;2023-08-06T01:47:23;10.35;;;8.10;;
81036;SDS011;70521;47.468;19.306;2023-08-06T01:50:24;9.55;;;7.78;;
81036;SDS011;70521;47.468;19.306;2023-08-06T01:53:26;9.85;;;7.65;;
81036;SDS011;70521;47.468;19.306;2023-08-06T01:56:27;8.70;;;7.30;;
81036;SDS011;70521;47.468;19.306;2023-08-06T01:59:28;11.73;;;7.88;;
81036;SDS011;70521;47.468;19.306;2023-08-06T02:02:29;8.05;;;6.43;;
81036;SDS011;70521;47.468;19.306;2023-08-06T02:05:30;8.65;;;7.25;;
81036;SDS011;70521;47.468;19.306;2023-08-06T02:08:31;7.40;;;6.35;;
81036;SDS011;70521;47.468;19.306;2023-08-06T02:11:32;7.43;;;6.47;;
81036;SDS011;70521;47.468;19.306;2023-08-06T02:14:33;7.78;;;6.97;;
81036;SDS011;70521;47.468;19.306;2023-08-06T02:17:34;7.95;;;6.20;;
81036;SDS011;70521;47.468;19.306;2023-08-06T02:20:35;7.57;;;6.50;;
81036;SDS011;70521;47.468;19.306;2023-08-06T02:23:36;9.25;;;8.18;;
81036;SDS011;70521;47.468;19.306;2023-08-06T02:26:37;10.95;;;8.55;;
81036;SDS011;70521;47.468;19.306;2023-08-06T02:29:39;11.30;;;8.30;;
81036;SDS011;70521;47.468;19.306;2023-08-06T02:32:41;9.10;;;7.55;;
81036;SDS011;70521;47.468;19.306;2023-08-06T02:35:42;10.75;;;8.43;;
81036;SDS011;70521;47.468;19.306;2023-08-06T02:38:43;7.53;;;6.65;;
81036;SDS011;70521;47.468;19.306;2023-08-06T02:41:44;7.75;;;6.80;;
81036;SDS011;70521;47.468;19.306;2023-08-06T02:44:45;8.07;;;6.40;;
81036;SDS011;70521;47.468;19.306;2023-08-06T02:47:46;6.53;;;5.80;;
81036;SDS011;70521;47.468;19.306;2023-08-06T02:50:48;6.57;;;5.50;;
81036;SDS011;70521;47.468;19.306;2023-08-06T02:53:49;6.53;;;5.80;;
81036;SDS011;70521;47.468;19.306;2023-08-06T02:56:51;6.40;;;5.53;;
81036;SDS011;70521;47.468;19.306;2023-08-06T02:59:58;9.82;;;6.50;;
81036;SDS011;70521;47.468;19.306;2023-08-06T03:03:01;6.50;;;5.82;;
81036;SDS011;70521;47.468;19.306;2023-08-06T03:06:28;7.47;;;5.40;;
81036;SDS011;70521;47.468;19.306;2023-08-06T03:09:31;7.22;;;5.90;;
81036;SDS011;70521;47.468;19.306;2023-08-06T03:12:33;7.07;;;6.38;;
81036;SDS011;70521;47.468;19.306;2023-08-06T03:15:35;6.80;;;6.15;;
81036;SDS011;70521;47.468;19.306;2023-08-06T03:18:37;7.90;;;7.10;;
81036;SDS011;70521;47.468;19.306;2023-08-06T03:21:40;7.63;;;6.88;;
81036;SDS011;70521;47.468;19.306;2023-08-06T03:24:42;8.75;;;7.22;;
81036;SDS011;70521;47.468;19.306;2023-08-06T03:27:43;7.80;;;7.00;;
81036;SDS011;70521;47.468;19.306;2023-08-06T03:30:46;9.07;;;7.07;;
81036;SDS011;70521;47.468;19.306;2023-08-06T03:33:48;8.38;;;6.40;;
81036;SDS011;70521;47.468;19.306;2023-08-06T03:36:51;7.93;;;6.80;;
81036;SDS011;70521;47.468;19.306;2023-08-06T03:39:52;10.32;;;6.97;;
81036;SDS011;70521;47.468;19.306;2023-08-06T03:42:53;8.15;;;6.78;;
81036;SDS011;70521;47.468;19.306;2023-08-06T03:45:54;8.40;;;6.85;;
81036;SDS011;70521;47.468;19.306;2023-08-06T03:48:56;7.88;;;7.07;;
81036;SDS011;70521;47.468;19.306;2023-08-06T03:51:58;9.43;;;7.20;;
81036;SDS011;70521;47.468;19.306;2023-08-06T03:54:59;8.40;;;6.97;;
81036;SDS011;70521;47.468;19.306;2023-08-06T03:58:00;8.80;;;6.28;;
81036;SDS011;70521;47.468;19.306;2023-08-06T04:01:01;7.53;;;6.45;;
81036;SDS011;70521;47.468;19.306;2023-08-06T04:04:07;6.65;;;5.32;;
81036;SDS011;70521;47.468;19.306;2023-08-06T04:07:08;10.82;;;7.25;;
81036;SDS011;70521;47.468;19.306;2023-08-06T04:10:09;7.60;;;6.88;;
81036;SDS011;70521;47.468;19.306;2023-08-06T04:13:10;8.18;;;6.63;;
81036;SDS011;70521;47.468;19.306;2023-08-06T04:16:11;7.25;;;6.25;;
81036;SDS011;70521;47.468;19.306;2023-08-06T04:19:14;9.55;;;6.57;;
81036;SDS011;70521;47.468;19.306;2023-08-06T04:22:16;10.00;;;7.28;;
81036;SDS011;70521;47.468;19.306;2023-08-06T04:25:18;7.07;;;6.10;;
81036;SDS011;70521;47.468;19.306;2023-08-06T04:28:21;7.47;;;6.03;;
81036;SDS011;70521;47.468;19.306;2023-08-06T04:31:22;6.68;;;5.57;;
81036;SDS011;70521;47.468;19.306;2023-08-06T04:34:24;6.28;;;5.68;;
81036;SDS011;70521;47.468;19.306;2023-08-06T04:37:26;7.13;;;5.50;;
81036;SDS011;70521;47.468;19.306;2023-08-06T04:40:27;6.88;;;6.13;;
81036;SDS011;70521;47.468;19.306;2023-08-06T04:43:29;7.28;;;5.40;;
81036;SDS011;70521;47.468;19.306;2023-08-06T04:46:30;5.75;;;4.30;;
81036;SDS011;70521;47.468;19.306;2023-08-06T04:49:31;5.80;;;5.13;;
81036;SDS011;70521;47.468;19.306;2023-08-06T04:52:32;6.10;;;4.63;;
81036;SDS011;70521;47.468;19.306;2023-08-06T04:55:33;5.57;;;4.80;;
81036;SDS011;70521;47.468;19.306;2023-08-06T04:58:34;5.10;;;4.55;;
81036;SDS011;70521;47.468;19.306;2023-08-06T05:01:35;6.82;;;5.18;;
81036;SDS011;70521;47.468;19.306;2023-08-06T05:04:36;6.57;;;5.88;;
81036;SDS011;70521;47.468;19.306;2023-08-06T05:07:38;5.60;;;5.10;;
81036;SDS011;70521;47.468;19.306;2023-08-06T05:10:38;6.35;;;4.97;;
81036;SDS011;70521;47.468;19.306;2023-08-06T05:13:42;6.60;;;4.63;;
81036;SDS011;70521;47.468;19.306;2023-08-06T05:16:43;7.60;;;5.72;;
81036;SDS011;70521;47.468;19.306;2023-08-06T05:19:44;6.15;;;5.55;;
81036;SDS011;70521;47.468;19.306;2023-08-06T05:22:45;8.23;;;5.85;;
81036;SDS011;70521;47.468;19.306;2023-08-06T05:25:46;6.03;;;5.10;;
81036;SDS011;70521;47.468;19.306;2023-08-06T05:28:47;5.32;;;4.50;;
81036;SDS011;70521;47.468;19.306;2023-08-06T05:31:48;4.45;;;4.03;;
81036;SDS011;70521;47.468;19.306;2023-08-06T05:34:49;5.30;;;4.90;;
81036;SDS011;70521;47.468;19.306;2023-08-06T05:37:50;5.03;;;4.53;;
81036;SDS011;70521;47.468;19.306;2023-08-06T05:40:51;5.03;;;4.53;;
81036;SDS011;70521;47.468;19.306;2023-08-06T05:43:54;4.82;;;3.45;;
81036;SDS011;70521;47.468;19.306;2023-08-06T05:46:55;2.95;;;2.65;;
81036;SDS011;70521;47.468;19.306;2023-08-06T05:49:56;2.78;;;2.58;;
81036;SDS011;70521;47.468;19.306;2023-08-06T05:52:57;2.72;;;2.53;;
81036;SDS011;70521;47.468;19.306;2023-08-06T05:55:58;2.78;;;2.50;;
81036;SDS011;70521;47.468;19.306;2023-08-06T05:58:59;3.08;;;2.00;;
81036;SDS011;70521;47.468;19.306;2023-08-06T06:02:00;2.80;;;2.20;;
81036;SDS011;70521;47.468;19.306;2023-08-06T06:05:01;3.75;;;2.70;;
81036;SDS011;70521;47.468;19.306;2023-08-06T06:08:02;2.55;;;2.28;;
81036;SDS011;70521;47.468;19.306;2023-08-06T06:11:03;2.55;;;2.35;;
81036;SDS011;70521;47.468;19.306;2023-08-06T06:14:04;2.83;;;1.77;;
81036;SDS011;70521;47.468;19.306;2023-08-06T06:17:05;2.13;;;1.92;;
81036;SDS011;70521;47.468;19.306;2023-08-06T06:20:06;1.80;;;1.65;;
81036;SDS011;70521;47.468;19.306;2023-08-06T06:23:07;1.85;;;1.60;;
81036;SDS011;70521;47.468;19.306;2023-08-06T06:26:08;2.25;;;1.95;;
81036;SDS011;70521;47.468;19.306;2023-08-06T06:29:10;1.73;;;1.63;;
81036;SDS011;70521;47.468;19.306;2023-08-06T06:32:11;1.67;;;1.27;;
81036;SDS011;70521;47.468;19.306;2023-08-06T06:35:12;2.03;;;1.83;;
81036;SDS011;70521;47.468;19.306;2023-08-06T06:38:13;1.35;;;1.10;;
81036;SDS011;70521;47.468;19.306;2023-08-06T06:41:14;1.95;;;1.67;;
81036;SDS011;70521;47.468;19.306;2023-08-06T06:44:15;1.10;;;0.90;;
81036;SDS011;70521;47.468;19.306;2023-08-06T06:47:17;1.38;;;1.27;;
81036;SDS011;70521;47.468;19.306;2023-08-06T06:50:18;1.20;;;1.10;;
81036;SDS011;70521;47.468;19.306;2023-08-06T06:53:19;1.55;;;1.45;;
81036;SDS011;70521;47.468;19.306;2023-08-06T06:56:20;1.17;;;1.08;;
81036;SDS011;70521;47.468;19.306;2023-08-06T06:59:21;1.27;;;1.15;;
81036;SDS011;70521;47.468;19.306;2023-08-06T07:02:22;1.10;;;1.00;;
81036;SDS011;70521;47.468;19.306;2023-08-06T07:05:23;1.02;;;0.88;;
81036;SDS011;70521;47.468;19.306;2023-08-06T07:08:24;1.13;;;1.00;;
81036;SDS011;70521;47.468;19.306;2023-08-06T07:11:25;1.50;;;1.40;;
81036;SDS011;70521;47.468;19.306;2023-08-06T07:14:28;2.17;;;1.85;;
81036;SDS011;70521;47.468;19.306;2023-08-06T07:17:29;1.40;;;1.30;;
81036;SDS011;70521;47.468;19.306;2023-08-06T07:20:30;1.23;;;1.13;;
81036;SDS011;70521;47.468;19.306;2023-08-06T07:23:33;1.40;;;1.15;;
81036;SDS011;70521;47.468;19.306;2023-08-06T07:26:34;1.58;;;1.48;;
81036;SDS011;70521;47.468;19.306;2023-08-06T07:29:36;1.63;;;1.52;;
81036;SDS011;70521;47.468;19.306;2023-08-06T07:32:37;1.75;;;1.65;;
81036;SDS011;70521;47.468;19.306;2023-08-06T07:35:38;1.70;;;1.60;;
81036;SDS011;70521;47.468;19.306;2023-08-06T07:38:39;1.73;;;1.63;;
81036;SDS011;70521;47.468;19.306;2023-08-06T07:41:40;1.92;;;1.83;;
81036;SDS011;70521;47.468;19.306;2023-08-06T07:44:42;1.80;;;1.70;;
81036;SDS011;70521;47.468;19.306;2023-08-06T07:47:43;2.85;;;2.65;;
81036;SDS011;70521;47.468;19.306;2023-08-06T07:50:44;2.13;;;1.92;;
81036;SDS011;70521;47.468;19.306;2023-08-06T07:53:51;2.20;;;2.00;;
81036;SDS011;70521;47.468;19.306;2023-08-06T07:56:52;2.05;;;1.95;;
81036;SDS011;70521;47.468;19.306;2023-08-06T07:59:53;1.88;;;1.77;;
81036;SDS011;70521;47.468;19.306;2023-08-06T08:02:54;1.45;;;1.35;;
81036;SDS011;70521;47.468;19.306;2023-08-06T08:05:55;2.20;;;1.58;;
81036;SDS011;70521;47.468;19.306;2023-08-06T08:08:59;1.50;;;1.40;;
81036;SDS011;70521;47.468;19.306;2023-08-06T08:12:00;1.65;;;1.55;;
81036;SDS011;70521;47.468;19.306;2023-08-06T08:15:03;1.90;;;1.80;;
81036;SDS011;70521;47.468;19.306;2023-08-06T08:18:04;1.95;;;1.85;;
81036;SDS011;70521;47.468;19.306;2023-08-06T08:21:05;1.55;;;1.38;;
81036;SDS011;70521;47.468;19.306;2023-08-06T08:24:06;1.50;;;1.40;;
81036;SDS011;70521;47.468;19.306;2023-08-06T08:27:07;1.33;;;1.20;;
81036;SDS011;70521;47.468;19.306;2023-08-06T08:30:08;1.98;;;1.85;;
81036;SDS011;70521;47.468;19.306;2023-08-06T08:33:10;1.38;;;1.20;;
81036;SDS011;70521;47.468;19.306;2023-08-06T08:36:11;1.42;;;1.13;;
81036;SDS011;70521;47.468;19.306;2023-08-06T08:39:12;1.67;;;1.58;;
81036;SDS011;70521;47.468;19.306;2023-08-06T08:42:13;1.45;;;1.35;;
81036;SDS011;70521;47.468;19.306;2023-08-06T08:45:14;1.35;;;1.20;;
81036;SDS011;70521;47.468;19.306;2023-08-06T08:48:15;1.30;;;1.20;;
81036;SDS011;70521;47.468;19.306;2023-08-06T08:51:16;1.35;;;1.17;;
81036;SDS011;70521;47.468;19.306;2023-08-06T08:54:18;1.58;;;1.48;;
81036;SDS011;70521;47.468;19.306;2023-08-06T08:57:19;1.52;;;1.42;;
81036;SDS011;70521;47.468;19.306;2023-08-06T09:00:21;1.10;;;1.00;;
81036;SDS011;70521;47.468;19.306;2023-08-06T09:03:22;1.83;;;1.15;;
81036;SDS011;70521;47.468;19.306;2023-08-06T09:06:24;2.25;;;2.15;;
81036;SDS011;70521;47.468;19.306;2023-08-06T09:09:31;1.30;;;1.00;;
81036;SDS011;70521;47.468;19.306;2023-08-06T09:12:34;1.73;;;1.63;;
81036;SDS011;70521;47.468;19.306;2023-08-06T09:15:35;1.30;;;1.10;;
81036;SDS011;70521;47.468;19.306;2023-08-06T09:18:36;1.58;;;1.30;;
81036;SDS011;70521;47.468;19.306;2023-08-06T09:21:40;1.73;;;1.63;;
81036;SDS011;70521;47.468;19.306;2023-08-06T09:24:41;1.30;;;1.02;;
81036;SDS011;70521;47.468;19.306;2023-08-06T09:27:46;2.15;;;1.95;;
81036;SDS011;70521;47.468;19.306;2023-08-06T09:30:47;1.20;;;1.10;;
81036;SDS011;70521;47.468;19.306;2023-08-06T09:33:48;1.27;;;1.02;;
81036;SDS011;70521;47.468;19.306;2023-08-06T09:36:53;1.33;;;0.93;;
81036;SDS011;70521;47.468;19.306;2023-08-06T09:39:54;1.38;;;1.27;;
81036;SDS011;70521;47.468;19.306;2023-08-06T09:42:56;1.30;;;1.20;;
81036;SDS011;70521;47.468;19.306;2023-08-06T09:45:57;1.30;;;1.20;;
81036;SDS011;70521;47.468;19.306;2023-08-06T09:48:58;1.52;;;1.42;;
81036;SDS011;70521;47.468;19.306;2023-08-06T09:51:59;1.30;;;1.20;;
81036;SDS011;70521;47.468;19.306;2023-08-06T09:55:01;1.27;;;1.17;;
81036;SDS011;70521;47.468;19.306;2023-08-06T09:58:02;2.83;;;2.63;;
81036;SDS011;70521;47.468;19.306;2023-08-06T10:01:04;1.50;;;1.40;;
81036;SDS011;70521;47.468;19.306;2023-08-06T10:04:05;1.63;;;1.25;;
81036;SDS011;70521;47.468;19.306;2023-08-06T10:07:11;1.42;;;1.33;;
81036;SDS011;70521;47.468;19.306;2023-08-06T10:10:12;1.30;;;1.13;;
81036;SDS011;70521;47.468;19.306;2023-08-06T10:13:13;1.30;;;1.10;;
81036;SDS011;70521;47.468;19.306;2023-08-06T10:16:14;1.38;;;1.20;;
81036;SDS011;70521;47.468;19.306;2023-08-06T10:19:15;1.20;;;0.95;;
81036;SDS011;70521;47.468;19.306;2023-08-06T10:22:17;1.42;;;1.33;;
81036;SDS011;70521;47.468;19.306;2023-08-06T10:25:19;1.80;;;1.70;;
81036;SDS011;70521;47.468;19.306;2023-08-06T10:28:20;1.48;;;1.08;;
81036;SDS011;70521;47.468;19.306;2023-08-06T10:34:56;1.40;;;1.17;;
81036;SDS011;70521;47.468;19.306;2023-08-06T10:38:08;1.50;;;1.40;;
81036;SDS011;70521;47.468;19.306;2023-08-06T10:41:14;1.70;;;1.60;;
81036;SDS011;70521;47.468;19.306;2023-08-06T10:44:16;1.70;;;1.60;;
81036;SDS011;70521;47.468;19.306;2023-08-06T10:47:26;1.85;;;1.75;;
81036;SDS011;70521;47.468;19.306;2023-08-06T10:50:28;1.45;;;1.35;;
81036;SDS011;70521;47.468;19.306;2023-08-06T10:53:29;1.40;;;1.30;;
81036;SDS011;70521;47.468;19.306;2023-08-06T10:56:30;1.40;;;1.27;;
81036;SDS011;70521;47.468;19.306;2023-08-06T10:59:32;1.67;;;1.58;;
81036;SDS011;70521;47.468;19.306;2023-08-06T11:02:34;1.67;;;1.58;;
81036;SDS011;70521;47.468;19.306;2023-08-06T11:05:36;1.50;;;1.30;;
81036;SDS011;70521;47.468;19.306;2023-08-06T11:08:37;1.38;;;1.17;;
81036;SDS011;70521;47.468;19.306;2023-08-06T11:11:38;1.48;;;1.38;;
81036;SDS011;70521;47.468;19.306;2023-08-06T11:14:39;1.73;;;1.63;;
81036;SDS011;70521;47.468;19.306;2023-08-06T11:17:40;1.73;;;1.63;;
81036;SDS011;70521;47.468;19.306;2023-08-06T11:20:42;3.10;;;1.83;;
81036;SDS011;70521;47.468;19.306;2023-08-06T11:23:43;1.73;;;1.63;;
81036;SDS011;70521;47.468;19.306;2023-08-06T11:26:44;1.40;;;1.30;;
81036;SDS011;70521;47.468;19.306;2023-08-06T11:29:45;2.03;;;1.45;;
81036;SDS011;70521;47.468;19.306;2023-08-06T11:32:46;1.48;;;1.38;;
81036;SDS011;70521;47.468;19.306;2023-08-06T11:35:48;1.50;;;1.30;;
81036;SDS011;70521;47.468;19.306;2023-08-06T11:38:49;1.50;;;1.38;;
81036;SDS011;70521;47.468;19.306;2023-08-06T11:41:51;1.95;;;1.45;;
81036;SDS011;70521;47.468;19.306;2023-08-06T11:44:52;1.50;;;1.30;;
81036;SDS011;70521;47.468;19.306;2023-08-06T11:47:53;1.67;;;1.58;;
81036;SDS011;70521;47.468;19.306;2023-08-06T11:50:54;1.38;;;1.27;;
81036;SDS011;70521;47.468;19.306;2023-08-06T11:53:56;1.85;;;1.40;;
81036;SDS011;70521;47.468;19.306;2023-08-06T11:56:58;1.50;;;1.35;;
81036;SDS011;70521;47.468;19.306;2023-08-06T12:00:05;1.50;;;1.30;;
81036;SDS011;70521;47.468;19.306;2023-08-06T12:03:13;1.60;;;1.50;;
81036;SDS011;70521;47.468;19.306;2023-08-06T12:06:14;1.45;;;1.33;;
81036;SDS011;70521;47.468;19.306;2023-08-06T12:09:15;1.40;;;1.30;;
81036;SDS011;70521;47.468;19.306;2023-08-06T12:12:16;1.85;;;1.75;;
81036;SDS011;70521;47.468;19.306;2023-08-06T12:15:17;1.42;;;1.33;;
81036;SDS011;70521;47.468;19.306;2023-08-06T12:18:19;1.50;;;1.40;;
81036;SDS011;70521;47.468;19.306;2023-08-06T12:21:20;2.10;;;1.90;;
81036;SDS011;70521;47.468;19.306;2023-08-06T12:24:23;1.90;;;1.80;;
81036;SDS011;70521;47.468;19.306;2023-08-06T12:27:24;2.05;;;1.52;;
81036;SDS011;70521;47.468;19.306;2023-08-06T12:30:33;1.92;;;1.70;;
81036;SDS011;70521;47.468;19.306;2023-08-06T12:33:50;2.05;;;1.50;;
81036;SDS011;70521;47.468;19.306;2023-08-06T12:36:52;1.80;;;1.50;;
81036;SDS011;70521;47.468;19.306;2023-08-06T12:39:53;1.85;;;1.60;;
81036;SDS011;70521;47.468;19.306;2023-08-06T12:42:54;1.95;;;1.65;;
81036;SDS011;70521;47.468;19.306;2023-08-06T12:46:14;2.13;;;1.92;;
81036;SDS011;70521;47.468;19.306;2023-08-06T12:49:26;1.98;;;1.85;;
81036;SDS011;70521;47.468;19.306;2023-08-06T12:52:27;2.00;;;1.73;;
81036;SDS011;70521;47.468;19.306;2023-08-06T12:55:28;2.95;;;2.75;;
81036;SDS011;70521;47.468;19.306;2023-08-06T12:58:29;2.10;;;1.90;;
81036;SDS011;70521;47.468;19.306;2023-08-06T13:01:29;4.57;;;1.63;;
81036;SDS011;70521;47.468;19.306;2023-08-06T13:04:31;1.40;;;1.30;;
81036;SDS011;70521;47.468;19.306;2023-08-06T13:07:32;1.75;;;1.63;;
81036;SDS011;70521;47.468;19.306;2023-08-06T13:10:33;2.08;;;1.88;;
81036;SDS011;70521;47.468;19.306;2023-08-06T13:13:34;1.73;;;1.63;;
81036;SDS011;70521;47.468;19.306;2023-08-06T13:16:35;2.22;;;1.92;;
81036;SDS011;70521;47.468;19.306;2023-08-06T13:19:37;1.65;;;1.55;;
81036;SDS011;70521;47.468;19.306;2023-08-06T13:22:38;2.65;;;1.48;;
81036;SDS011;70521;47.468;19.306;2023-08-06T13:25:39;2.88;;;1.58;;
81036;SDS011;70521;47.468;19.306;2023-08-06T13:28:40;2.20;;;2.00;;
81036;SDS011;70521;47.468;19.306;2023-08-06T13:31:42;2.00;;;1.80;;
81036;SDS011;70521;47.468;19.306;2023-08-06T13:34:43;1.92;;;1.65;;
81036;SDS011;70521;47.468;19.306;2023-08-06T13:37:46;2.42;;;2.22;;
81036;SDS011;70521;47.468;19.306;2023-08-06T13:40:48;3.72;;;1.98;;
81036;SDS011;70521;47.468;19.306;2023-08-06T13:43:49;1.85;;;1.65;;
81036;SDS011;70521;47.468;19.306;2023-08-06T13:46:50;2.88;;;2.67;;
81036;SDS011;70521;47.468;19.306;2023-08-06T13:49:51;3.30;;;2.10;;
81036;SDS011;70521;47.468;19.306;2023-08-06T13:52:52;1.83;;;1.73;;
81036;SDS011;70521;47.468;19.306;2023-08-06T13:55:54;2.30;;;2.10;;
81036;SDS011;70521;47.468;19.306;2023-08-06T13:58:55;2.25;;;2.05;;
81036;SDS011;70521;47.468;19.306;2023-08-06T14:01:56;2.22;;;2.03;;
81036;SDS011;70521;47.468;19.306;2023-08-06T14:05:00;2.50;;;2.30;;
81036;SDS011;70521;47.468;19.306;2023-08-06T14:08:01;3.10;;;2.63;;
81036;SDS011;70521;47.468;19.306;2023-08-06T14:11:02;2.17;;;1.98;;
81036;SDS011;70521;47.468;19.306;2023-08-06T14:14:03;3.80;;;2.15;;
81036;SDS011;70521;47.468;19.306;2023-08-06T14:17:05;2.58;;;2.38;;
81036;SDS011;70521;47.468;19.306;2023-08-06T14:20:06;2.67;;;2.00;;
81036;SDS011;70521;47.468;19.306;2023-08-06T14:23:09;2.53;;;2.05;;
81036;SDS011;70521;47.468;19.306;2023-08-06T14:26:10;2.75;;;2.55;;
81036;SDS011;70521;47.468;19.306;2023-08-06T14:29:11;2.88;;;2.58;;
81036;SDS011;70521;47.468;19.306;2023-08-06T14:32:14;2.47;;;2.28;;
81036;SDS011;70521;47.468;19.306;2023-08-06T14:35:18;2.47;;;2.28;;
81036;SDS011;70521;47.468;19.306;2023-08-06T14:38:19;2.33;;;2.13;;
81036;SDS011;70521;47.468;19.306;2023-08-06T14:41:20;2.90;;;2.70;;
81036;SDS011;70521;47.468;19.306;2023-08-06T14:44:21;3.22;;;3.03;;
81036;SDS011;70521;47.468;19.306;2023-08-06T14:47:22;2.90;;;2.70;;
81036;SDS011;70521;47.468;19.306;2023-08-06T14:50:23;2.53;;;2.33;;
81036;SDS011;70521;47.468;19.306;2023-08-06T14:53:24;2.47;;;2.22;;
81036;SDS011;70521;47.468;19.306;2023-08-06T14:56:25;2.20;;;2.00;;
81036;SDS011;70521;47.468;19.306;2023-08-06T14:59:26;2.58;;;2.25;;
81036;SDS011;70521;47.468;19.306;2023-08-06T15:02:27;2.92;;;2.30;;
81036;SDS011;70521;47.468;19.306;2023-08-06T15:05:28;2.22;;;2.03;;
81036;SDS011;70521;47.468;19.306;2023-08-06T15:08:29;2.63;;;2.42;;
81036;SDS011;70521;47.468;19.306;2023-08-06T15:11:30;2.63;;;2.42;;
81036;SDS011;70521;47.468;19.306;2023-08-06T15:14:31;3.08;;;2.88;;
81036;SDS011;70521;47.468;19.306;2023-08-06T15:17:32;2.55;;;2.35;;
81036;SDS011;70521;47.468;19.306;2023-08-06T15:20:33;3.20;;;3.00;;
81036;SDS011;70521;47.468;19.306;2023-08-06T15:23:34;3.00;;;2.72;;
81036;SDS011;70521;47.468;19.306;2023-08-06T15:26:35;3.15;;;2.95;;
81036;SDS011;70521;47.468;19.306;2023-08-06T15:29:37;2.47;;;2.28;;
81036;SDS011;70521;47.468;19.306;2023-08-06T15:32:38;2.72;;;2.53;;
81036;SDS011;70521;47.468;19.306;2023-08-06T15:35:42;3.13;;;2.92;;
81036;SDS011;70521;47.468;19.306;2023-08-06T15:38:42;2.33;;;2.13;;
81036;SDS011;70521;47.468;19.306;2023-08-06T15:41:43;2.95;;;2.55;;
81036;SDS011;70521;47.468;19.306;2023-08-06T15:44:44;3.67;;;3.40;;
81036;SDS011;70521;47.468;19.306;2023-08-06T15:47:46;3.47;;;3.28;;
81036;SDS011;70521;47.468;19.306;2023-08-06T15:50:47;2.88;;;2.67;;
81036;SDS011;70521;47.468;19.306;2023-08-06T15:53:47;3.35;;;2.42;;
81036;SDS011;70521;47.468;19.306;2023-08-06T15:56:48;3.30;;;2.47;;
81036;SDS011;70521;47.468;19.306;2023-08-06T15:59:49;2.63;;;2.42;;
81036;SDS011;70521;47.468;19.306;2023-08-06T16:02:50;3.00;;;2.80;;
81036;SDS011;70521;47.468;19.306;2023-08-06T16:05:52;2.38;;;2.17;;
81036;SDS011;70521;47.468;19.306;2023-08-06T16:08:53;3.25;;;3.05;;
81036;SDS011;70521;47.468;19.306;2023-08-06T16:11:54;3.00;;;2.78;;
81036;SDS011;70521;47.468;19.306;2023-08-06T16:14:55;3.03;;;2.83;;
81036;SDS011;70521;47.468;19.306;2023-08-06T16:17:56;2.88;;;2.67;;
81036;SDS011;70521;47.468;19.306;2023-08-06T16:20:57;3.30;;;2.95;;
81036;SDS011;70521;47.468;19.306;2023-08-06T16:23:58;2.65;;;2.38;;
81036;SDS011;70521;47.468;19.306;2023-08-06T16:26:59;2.83;;;2.55;;
81036;SDS011;70521;47.468;19.306;2023-08-06T16:30:00;3.15;;;2.85;;
81036;SDS011;70521;47.468;19.306;2023-08-06T16:33:01;3.03;;;2.70;;
81036;SDS011;70521;47.468;19.306;2023-08-06T16:36:03;3.08;;;2.78;;
81036;SDS011;70521;47.468;19.306;2023-08-06T16:39:05;3.00;;;2.70;;
81036;SDS011;70521;47.468;19.306;2023-08-06T16:42:06;3.08;;;2.88;;
81036;SDS011;70521;47.468;19.306;2023-08-06T16:45:07;2.97;;;2.72;;
81036;SDS011;70521;47.468;19.306;2023-08-06T16:48:08;2.53;;;2.30;;
81036;SDS011;70521;47.468;19.306;2023-08-06T16:51:09;3.63;;;2.80;;
81036;SDS011;70521;47.468;19.306;2023-08-06T16:54:11;3.70;;;3.10;;
81036;SDS011;70521;47.468;19.306;2023-08-06T16:57:12;2.85;;;2.65;;
81036;SDS011;70521;47.468;19.306;2023-08-06T17:00:13;2.70;;;2.50;;
81036;SDS011;70521;47.468;19.306;2023-08-06T17:03:14;2.33;;;2.13;;
81036;SDS011;70521;47.468;19.306;2023-08-06T17:06:16;3.15;;;2.72;;
81036;SDS011;70521;47.468;19.306;2023-08-06T17:09:17;2.97;;;2.78;;
81036;SDS011;70521;47.468;19.306;2023-08-06T17:12:18;3.60;;;3.40;;
81036;SDS011;70521;47.468;19.306;2023-08-06T17:15:20;2.58;;;2.38;;
81036;SDS011;70521;47.468;19.306;2023-08-06T17:18:22;2.70;;;2.50;;
81036;SDS011;70521;47.468;19.306;2023-08-06T17:21:23;4.63;;;3.17;;
81036;SDS011;70521;47.468;19.306;2023-08-06T17:24:24;4.75;;;4.35;;
81036;SDS011;70521;47.468;19.306;2023-08-06T17:27:25;2.80;;;2.60;;
81036;SDS011;70521;47.468;19.306;2023-08-06T17:30:26;3.10;;;2.90;;
81036;SDS011;70521;47.468;19.306;2023-08-06T17:33:27;3.35;;;3.05;;
81036;SDS011;70521;47.468;19.306;2023-08-06T17:36:28;2.63;;;2.42;;
81036;SDS011;70521;47.468;19.306;2023-08-06T17:39:32;2.70;;;2.50;;
81036;SDS011;70521;47.468;19.306;2023-08-06T17:42:33;2.55;;;2.22;;
81036;SDS011;70521;47.468;19.306;2023-08-06T17:45:34;2.53;;;2.33;;
81036;SDS011;70521;47.468;19.306;2023-08-06T17:48:36;2.72;;;2.47;;
81036;SDS011;70521;47.468;19.306;2023-08-06T17:51:37;2.35;;;2.10;;
81036;SDS011;70521;47.468;19.306;2023-08-06T17:54:38;2.63;;;2.42;;
81036;SDS011;70521;47.468;19.306;2023-08-06T17:57:39;3.47;;;2.60;;
81036;SDS011;70521;47.468;19.306;2023-08-06T18:00:40;3.03;;;2.83;;
81036;SDS011;70521;47.468;19.306;2023-08-06T18:03:43;2.70;;;2.50;;
81036;SDS011;70521;47.468;19.306;2023-08-06T18:06:46;3.33;;;3.03;;
81036;SDS011;70521;47.468;19.306;2023-08-06T18:09:47;2.65;;;2.45;;